createdAt,value
2022-10-08T00:00:33.353Z,82.39
2022-10-08T00:03:41.423Z,82.44
2022-10-08T00:06:50.610Z,82.47
2022-10-08T00:09:56.182Z,82.44
2022-10-08T00:13:03.981Z,82.40
2022-10-08T00:16:12.657Z,82.39
2022-10-08T00:19:19.307Z,81.96
2022-10-08T00:22:27.991Z,82.08
2022-10-08T00:25:34.417Z,81.79
2022-10-08T00:28:41.536Z,81.82
2022-10-08T00:31:50.393Z,81.90
2022-10-08T00:34:56.141Z,82.06
2022-10-08T00:38:06.307Z,82.02
2022-10-08T00:41:21.316Z,82.15
2022-10-08T00:44:57.387Z,81.94
2022-10-08T00:48:03.328Z,82.06
2022-10-08T00:51:10.021Z,81.86
2022-10-08T00:54:20.184Z,81.79
2022-10-08T00:57:26.971Z,81.77
2022-10-08T01:00:33.850Z,81.92
2022-10-08T01:03:40.630Z,81.78
2022-10-08T01:06:53.685Z,81.86
2022-10-08T01:10:08.904Z,82.01
2022-10-08T01:13:25.399Z,81.79
2022-10-08T01:16:38.131Z,81.76
2022-10-08T01:20:16.025Z,81.98
2022-10-08T01:24:09.959Z,82.05
2022-10-08T01:27:32.246Z,82.17
2022-10-08T01:30:41.612Z,82.39
2022-10-08T01:33:53.183Z,82.37
2022-10-08T01:37:00.686Z,82.53
2022-10-08T01:40:14.294Z,82.55
2022-10-08T01:43:26.369Z,82.77
2022-10-08T01:46:34.806Z,82.54
2022-10-08T01:49:45.884Z,82.75
2022-10-08T01:52:58.441Z,82.63
2022-10-08T01:56:07.132Z,82.30
2022-10-08T01:59:20.031Z,82.30
2022-10-08T02:02:27.869Z,82.37
2022-10-08T02:05:39.146Z,82.20
2022-10-08T02:08:44.825Z,82.31
2022-10-08T02:11:51.619Z,82.13
2022-10-08T02:15:03.857Z,82.42
2022-10-08T02:18:15.804Z,82.19
2022-10-08T02:21:26.721Z,82.05
2022-10-08T02:24:40.948Z,82.22
2022-10-08T02:27:56.470Z,82.37
2022-10-08T02:31:11.376Z,82.50
2022-10-08T02:34:22.480Z,82.45
2022-10-08T02:37:35.749Z,82.47
2022-10-08T02:40:46.444Z,82.56
2022-10-08T02:43:55.300Z,83.25
2022-10-08T02:47:08.953Z,83.14
2022-10-08T02:50:19.828Z,83.34
2022-10-08T02:53:27.435Z,83.45
2022-10-08T02:56:39.043Z,84.01
2022-10-08T02:59:46.092Z,84.29
2022-10-08T03:03:03.878Z,85.37
2022-10-08T03:06:12.431Z,85.75
2022-10-08T03:09:21.256Z,85.36
2022-10-08T03:12:27.771Z,85.06
2022-10-08T03:15:37.017Z,84.49
2022-10-08T03:18:46.634Z,84.87
2022-10-08T03:21:58.030Z,84.42
2022-10-08T03:25:03.923Z,84.38
2022-10-08T03:28:10.571Z,84.11
2022-10-08T03:31:16.516Z,84.02
2022-10-08T03:34:27.741Z,84.06
2022-10-08T03:37:33.343Z,84.36
2022-10-08T03:40:40.047Z,83.95
2022-10-08T03:43:46.311Z,83.90
2022-10-08T03:46:52.742Z,83.32
2022-10-08T03:50:03.500Z,82.86
2022-10-08T03:53:09.973Z,83.00
2022-10-08T03:56:17.372Z,83.21
2022-10-08T03:59:23.845Z,83.06
2022-10-08T04:02:29.871Z,83.24
2022-10-08T04:05:39.186Z,83.40
2022-10-08T04:08:45.225Z,83.21
2022-10-08T04:11:51.745Z,82.90
2022-10-08T04:14:57.320Z,82.85
2022-10-08T04:18:03.784Z,83.03
2022-10-08T04:21:14.307Z,82.67
2022-10-08T04:24:20.736Z,83.21
2022-10-08T04:27:26.585Z,83.34
2022-10-08T04:30:33.472Z,83.06
2022-10-08T04:33:40.087Z,83.17
2022-10-08T04:36:49.334Z,82.69
2022-10-08T04:39:54.984Z,82.99
2022-10-08T04:43:03.965Z,82.79
2022-10-08T04:46:12.308Z,83.13
2022-10-08T04:49:19.585Z,83.16
2022-10-08T04:52:38.884Z,83.04
2022-10-08T04:55:45.320Z,83.27
2022-10-08T04:58:51.637Z,83.79
2022-10-08T05:01:59.221Z,83.21
2022-10-08T05:05:07.421Z,83.38
2022-10-08T05:08:16.649Z,83.59
2022-10-08T05:11:22.541Z,83.67
2022-10-08T05:14:29.214Z,83.56
2022-10-08T05:17:34.802Z,83.53
2022-10-08T05:20:41.251Z,83.63
2022-10-08T05:23:50.148Z,84.03
2022-10-08T05:26:59.015Z,84.20
2022-10-08T05:30:07.854Z,83.82
2022-10-08T05:33:14.257Z,83.87
2022-10-08T05:36:23.108Z,83.77
2022-10-08T05:39:32.366Z,83.72
2022-10-08T05:42:37.934Z,83.83
2022-10-08T05:45:52.718Z,83.90
2022-10-08T05:48:59.791Z,83.61
2022-10-08T05:52:08.293Z,84.04
2022-10-08T05:55:17.136Z,83.93
2022-10-08T05:58:26.310Z,83.78
2022-10-08T06:01:36.961Z,84.37
2022-10-08T06:04:43.425Z,84.36
2022-10-08T06:07:49.105Z,84.73
2022-10-08T06:10:59.108Z,84.47
2022-10-08T06:14:08.872Z,83.76
2022-10-08T06:17:15.326Z,83.85
2022-10-08T06:20:20.972Z,83.64
2022-10-08T06:23:27.423Z,83.31
2022-10-08T06:26:38.559Z,83.18
2022-10-08T06:29:45.004Z,83.12
2022-10-08T06:32:50.596Z,83.04
2022-10-08T06:35:57.381Z,82.68
2022-10-08T06:39:06.524Z,82.30
2022-10-08T06:42:15.992Z,82.09
2022-10-08T06:45:22.919Z,82.08
2022-10-08T06:48:30.436Z,81.61
2022-10-08T06:51:37.241Z,81.27
2022-10-08T06:54:43.657Z,81.04
2022-10-08T06:57:52.850Z,81.10
2022-10-08T07:01:07.298Z,80.81
2022-10-08T07:04:14.588Z,80.99
2022-10-08T07:07:21.000Z,80.50
2022-10-08T07:10:29.782Z,80.17
2022-10-08T07:13:42.870Z,79.96
2022-10-08T07:16:48.534Z,79.41
2022-10-08T07:19:55.423Z,78.85
2022-10-08T07:23:00.966Z,78.29
2022-10-08T07:26:13.087Z,78.11
2022-10-08T07:29:21.665Z,77.65
2022-10-08T07:32:28.086Z,76.94
2022-10-08T07:35:33.668Z,77.01
2022-10-08T07:38:40.452Z,76.79
2022-10-08T07:41:46.166Z,75.87
2022-10-08T07:44:55.348Z,74.87
2022-10-08T07:48:01.097Z,73.96
2022-10-08T07:51:13.077Z,73.14
2022-10-08T07:54:21.324Z,72.74
2022-10-08T07:57:27.729Z,72.41
2022-10-08T08:00:36.449Z,71.79
2022-10-08T08:03:42.976Z,71.34
2022-10-08T08:06:52.553Z,71.65
2022-10-08T08:09:58.972Z,71.63
2022-10-08T08:13:07.091Z,71.57
2022-10-08T08:16:18.137Z,71.72
2022-10-08T08:19:24.861Z,70.81
2022-10-08T08:22:31.354Z,70.47
2022-10-08T08:25:36.951Z,69.98
2022-10-08T08:28:43.857Z,69.52
2022-10-08T08:31:53.547Z,68.74
2022-10-08T08:34:59.979Z,68.36
2022-10-08T08:38:08.210Z,68.41
2022-10-08T08:41:29.811Z,68.10
2022-10-08T08:44:37.831Z,68.42
2022-10-08T08:47:57.040Z,68.06
2022-10-08T08:51:04.450Z,68.29
2022-10-08T08:54:11.085Z,67.38
2022-10-08T08:57:43.332Z,67.05
2022-10-08T09:00:57.895Z,66.74
2022-10-08T09:04:12.735Z,66.21
2022-10-08T09:07:22.485Z,66.58
2022-10-08T09:10:38.354Z,65.60
2022-10-08T09:13:50.501Z,65.92
2022-10-08T09:16:57.411Z,65.47
2022-10-08T09:20:07.368Z,65.53
2022-10-08T09:23:18.015Z,65.24
2022-10-08T09:26:26.102Z,64.71
2022-10-08T09:29:37.741Z,64.87
2022-10-08T09:32:44.307Z,65.19
2022-10-08T09:35:55.207Z,63.68
2022-10-08T09:39:03.953Z,64.32
2022-10-08T09:42:18.429Z,64.13
2022-10-08T09:45:43.459Z,64.41
2022-10-08T09:48:49.079Z,63.78
2022-10-08T09:52:00.445Z,64.39
2022-10-08T09:55:14.382Z,65.50
2022-10-08T09:58:22.512Z,64.83
2022-10-08T10:01:28.645Z,64.12
2022-10-08T10:04:40.548Z,64.22
2022-10-08T10:07:49.423Z,64.43
2022-10-08T10:10:56.173Z,64.11
2022-10-08T10:14:08.075Z,65.11
2022-10-08T10:17:22.169Z,65.32
2022-10-08T10:20:31.940Z,65.57
2022-10-08T10:23:49.482Z,64.65
2022-10-08T10:26:58.865Z,63.65
2022-10-08T10:30:17.620Z,65.03
2022-10-08T10:33:27.933Z,66.00
2022-10-08T10:36:38.154Z,65.90
2022-10-08T10:39:53.046Z,65.70
2022-10-08T10:43:15.539Z,65.91
2022-10-08T10:46:36.870Z,65.83
2022-10-08T10:49:48.758Z,66.24
2022-10-08T10:53:06.407Z,65.52
2022-10-08T10:56:20.202Z,65.69
2022-10-08T10:59:45.367Z,65.06
2022-10-08T11:03:01.245Z,65.05
2022-10-08T11:06:25.103Z,64.53
2022-10-08T11:09:44.045Z,65.40
2022-10-08T11:12:59.092Z,65.72
2022-10-08T11:16:21.784Z,65.06
2022-10-08T11:19:41.121Z,64.62
2022-10-08T11:22:55.064Z,65.28
2022-10-08T11:26:21.766Z,64.45
2022-10-08T11:29:41.524Z,64.49
2022-10-08T11:32:52.329Z,64.05
2022-10-08T11:36:16.773Z,64.21
2022-10-08T11:39:24.453Z,65.17
2022-10-08T11:42:48.274Z,64.65
2022-10-08T11:46:22.993Z,63.80
2022-10-08T11:49:56.198Z,65.02
2022-10-08T11:53:19.542Z,62.41
2022-10-08T11:56:26.050Z,64.20
2022-10-08T11:59:39.686Z,64.77
2022-10-08T12:02:55.709Z,64.17
2022-10-08T12:06:16.155Z,64.95
2022-10-08T12:09:26.379Z,63.70
2022-10-08T12:13:06.694Z,64.80
2022-10-08T12:16:13.162Z,64.82
2022-10-08T12:20:04.461Z,65.15
2022-10-08T12:23:12.388Z,64.95
2022-10-08T12:26:19.249Z,64.38
2022-10-08T12:29:30.960Z,64.03
2022-10-08T12:32:55.903Z,64.89
2022-10-08T12:36:13.782Z,64.11
2022-10-08T12:39:29.691Z,63.80
2022-10-08T12:42:40.356Z,64.62
2022-10-08T12:45:54.217Z,64.73
2022-10-08T12:49:07.829Z,64.44
2022-10-08T12:52:18.030Z,64.62
2022-10-08T12:55:26.759Z,64.56
2022-10-08T12:58:34.871Z,64.42
2022-10-08T13:01:44.346Z,64.70
2022-10-08T13:04:50.151Z,65.47
2022-10-08T13:08:00.170Z,64.64
2022-10-08T13:11:11.788Z,65.12
2022-10-08T13:14:29.020Z,65.23
2022-10-08T13:17:37.175Z,64.15
2022-10-08T13:20:59.615Z,64.76
2022-10-08T13:24:49.342Z,64.73
2022-10-08T13:31:27.262Z,64.72
2022-10-08T13:34:36.692Z,65.67
2022-10-08T13:37:43.732Z,65.32
2022-10-08T13:40:55.740Z,64.76
2022-10-08T13:44:06.526Z,64.89
2022-10-08T13:47:18.898Z,65.36
2022-10-08T13:50:25.550Z,65.59
2022-10-08T13:53:33.818Z,65.64
2022-10-08T13:56:39.769Z,65.74
2022-10-08T13:59:46.222Z,64.79
2022-10-08T14:02:54.618Z,65.54
2022-10-08T14:06:01.080Z,65.74
2022-10-08T14:09:09.837Z,65.64
2022-10-08T14:12:16.659Z,65.42
2022-10-08T14:15:22.368Z,66.09
2022-10-08T14:18:31.594Z,66.18
2022-10-08T14:21:37.779Z,66.00
2022-10-08T14:24:44.301Z,66.01
2022-10-08T14:27:50.487Z,65.75
2022-10-08T14:30:57.726Z,65.75
2022-10-08T14:34:07.219Z,66.17
2022-10-08T14:37:14.151Z,66.06
2022-10-08T14:40:22.259Z,66.34
2022-10-08T14:43:28.657Z,66.59
2022-10-08T14:46:34.239Z,66.81
2022-10-08T14:49:44.466Z,66.71
2022-10-08T14:52:50.292Z,66.77
2022-10-08T14:56:11.630Z,67.24
2022-10-08T14:59:18.608Z,67.22
2022-10-08T15:02:25.034Z,66.97
2022-10-08T15:05:33.407Z,67.30
2022-10-08T15:08:40.558Z,67.70
2022-10-08T15:11:46.696Z,67.89
2022-10-08T15:14:53.101Z,68.29
2022-10-08T15:17:58.886Z,68.40
2022-10-08T15:21:10.233Z,68.36
2022-10-08T15:24:16.354Z,68.82
2022-10-08T15:27:24.567Z,68.79
2022-10-08T15:30:30.381Z,69.31
2022-10-08T15:33:40.948Z,69.40
2022-10-08T15:36:49.521Z,69.53
2022-10-08T15:39:56.210Z,69.77
2022-10-08T15:43:03.456Z,69.83
2022-10-08T15:46:13.735Z,70.26
2022-10-08T15:49:19.874Z,70.31
2022-10-08T15:52:29.332Z,70.61
2022-10-08T15:55:34.915Z,70.88
2022-10-08T15:58:51.390Z,70.93
2022-10-08T16:01:57.458Z,71.09
2022-10-08T16:05:03.945Z,71.33
2022-10-08T16:08:12.549Z,71.60
2022-10-08T16:11:21.312Z,71.48
2022-10-08T16:14:28.762Z,71.67
2022-10-08T16:17:35.216Z,71.96
2022-10-08T16:20:42.424Z,72.16
2022-10-08T16:23:52.523Z,72.38
2022-10-08T16:26:58.527Z,72.85
2022-10-08T16:30:08.482Z,72.97
2022-10-08T16:33:14.058Z,73.25
2022-10-08T16:36:20.516Z,73.29
2022-10-08T16:39:29.002Z,73.55
2022-10-08T16:42:35.443Z,73.56
2022-10-08T16:45:42.414Z,74.25
2022-10-08T16:48:54.440Z,74.08
2022-10-08T16:52:04.910Z,74.38
2022-10-08T16:55:14.827Z,74.40
2022-10-08T16:58:20.396Z,74.44
2022-10-08T17:01:27.536Z,74.68
2022-10-08T17:04:39.129Z,74.65
2022-10-08T17:07:45.581Z,74.71
2022-10-08T17:10:55.038Z,75.11
2022-10-08T17:14:03.913Z,75.49
2022-10-08T17:17:09.643Z,75.60
2022-10-08T17:20:16.176Z,75.78
2022-10-08T17:23:21.748Z,75.93
2022-10-08T17:26:32.510Z,75.71
2022-10-08T17:29:38.115Z,76.08
2022-10-08T17:32:44.846Z,76.32
2022-10-08T17:35:50.570Z,76.17
2022-10-08T17:39:00.625Z,76.23
2022-10-08T17:42:10.830Z,76.21
2022-10-08T17:45:18.020Z,76.58
2022-10-08T17:48:23.632Z,76.44
2022-10-08T17:51:32.351Z,76.53
2022-10-08T17:54:38.209Z,76.31
2022-10-08T17:57:47.404Z,76.52
2022-10-08T18:00:53.280Z,76.49
2022-10-08T18:04:01.194Z,76.45
2022-10-08T18:07:08.146Z,76.75
2022-10-08T18:10:14.807Z,76.92
2022-10-08T18:13:23.219Z,76.96
2022-10-08T18:16:29.759Z,76.83
2022-10-08T18:19:35.382Z,76.76
2022-10-08T18:22:41.802Z,76.65
2022-10-08T18:25:50.419Z,76.95
2022-10-08T18:29:06.490Z,77.28
2022-10-08T18:32:12.337Z,77.38
2022-10-08T18:35:18.976Z,77.70
2022-10-08T18:38:24.520Z,78.02
2022-10-08T18:41:35.616Z,78.40
2022-10-08T18:44:43.988Z,78.75
2022-10-08T18:47:50.634Z,78.70
2022-10-08T18:50:56.441Z,78.79
2022-10-08T18:54:03.293Z,78.73
2022-10-08T18:57:08.975Z,78.76
2022-10-08T19:00:18.710Z,78.86
2022-10-08T19:03:24.613Z,78.90
2022-10-08T19:06:33.458Z,79.17
2022-10-08T19:09:39.630Z,78.89
2022-10-08T19:12:46.634Z,79.07
2022-10-08T19:15:55.161Z,79.39
2022-10-08T19:19:03.774Z,79.48
2022-10-08T19:22:09.352Z,79.87
2022-10-08T19:25:15.917Z,80.01
2022-10-08T19:28:21.597Z,80.04
2022-10-08T19:31:33.523Z,79.83
2022-10-08T19:34:39.178Z,80.22
2022-10-08T19:37:45.620Z,80.59
2022-10-08T19:40:51.183Z,80.94
2022-10-08T19:44:03.495Z,80.89
2022-10-08T19:47:14.242Z,80.79
2022-10-08T19:50:20.747Z,80.78
2022-10-08T19:53:26.615Z,80.73
2022-10-08T19:56:33.330Z,80.52
2022-10-08T19:59:38.906Z,80.46
2022-10-08T20:02:48.350Z,80.38
2022-10-08T20:05:54.047Z,80.47
2022-10-08T20:09:03.411Z,80.67
2022-10-08T20:12:09.235Z,80.77
2022-10-08T20:15:15.747Z,80.79
2022-10-08T20:18:24.409Z,80.95
2022-10-08T20:21:32.088Z,81.05
2022-10-08T20:24:37.671Z,81.27
2022-10-08T20:27:44.130Z,81.39
2022-10-08T20:30:49.984Z,81.39
2022-10-08T20:34:03.629Z,81.52
2022-10-08T20:37:09.437Z,81.69
2022-10-08T20:40:15.858Z,81.49
2022-10-08T20:43:21.425Z,81.38
2022-10-08T20:46:27.889Z,81.43
2022-10-08T20:49:36.573Z,81.65
2022-10-08T20:52:43.001Z,81.71
2022-10-08T20:55:48.844Z,81.72
2022-10-08T20:58:55.635Z,81.67
2022-10-08T21:02:01.265Z,81.68
2022-10-08T21:05:12.094Z,81.40
2022-10-08T21:08:17.708Z,81.26
2022-10-08T21:11:26.214Z,81.10
2022-10-08T21:14:31.886Z,81.13
2022-10-08T21:17:39.164Z,80.92
2022-10-08T21:20:48.999Z,80.77
2022-10-08T21:23:55.906Z,80.50
2022-10-08T21:27:03.376Z,80.41
2022-10-08T21:30:11.556Z,80.24
2022-10-08T21:33:17.096Z,79.93
2022-10-08T21:36:28.744Z,79.25
2022-10-08T21:39:34.313Z,78.69
2022-10-08T21:42:40.724Z,78.10
2022-10-08T21:45:56.537Z,77.45
2022-10-08T21:49:06.551Z,76.44
2022-10-08T21:52:14.922Z,75.51
2022-10-08T21:55:21.337Z,74.82
2022-10-08T21:58:28.037Z,75.07
2022-10-08T22:01:37.171Z,74.30
2022-10-08T22:04:43.111Z,73.54
2022-10-08T22:07:52.303Z,73.30
2022-10-08T22:10:58.616Z,72.89
2022-10-08T22:14:07.078Z,72.42
2022-10-08T22:17:12.944Z,72.22
2022-10-08T22:20:20.056Z,71.97
2022-10-08T22:23:28.449Z,70.81
2022-10-08T22:26:36.715Z,70.25
2022-10-08T22:29:42.277Z,69.87
2022-10-08T22:32:49.092Z,69.99
2022-10-08T22:35:55.121Z,70.51
2022-10-08T22:39:04.392Z,70.28
2022-10-08T22:42:09.976Z,70.52
2022-10-08T22:45:16.508Z,70.48
2022-10-08T22:48:23.526Z,70.32
2022-10-08T22:51:30.876Z,70.27
2022-10-08T22:54:39.283Z,69.96
2022-10-08T22:57:46.256Z,70.07
2022-10-08T23:01:00.858Z,70.34
2022-10-08T23:04:08.642Z,70.89
2022-10-08T23:07:14.272Z,71.50
2022-10-08T23:10:23.455Z,71.81
2022-10-08T23:13:30.318Z,72.54
2022-10-08T23:16:37.659Z,73.08
2022-10-08T23:19:43.339Z,73.89
2022-10-08T23:22:50.365Z,74.38
2022-10-08T23:26:00.659Z,74.80
2022-10-08T23:29:08.784Z,75.01
2022-10-08T23:32:14.593Z,75.42
2022-10-08T23:35:21.066Z,75.38
2022-10-08T23:38:26.776Z,75.42
2022-10-08T23:41:37.167Z,75.24
2022-10-08T23:44:42.757Z,75.47
2022-10-08T23:47:49.238Z,75.45
2022-10-08T23:50:55.720Z,74.67
2022-10-08T23:54:03.647Z,74.50
2022-10-08T23:57:12.175Z,74.22
